createdAt,value
2018-06-18T00:01:47.951Z,70.22
2018-06-18T00:04:16.749Z,70.24
2018-06-18T00:06:45.532Z,71.01
2018-06-18T00:09:15.062Z,72.46
2018-06-18T00:11:44.547Z,72.21
2018-06-18T00:14:13.889Z,72.28
2018-06-18T00:16:42.722Z,71.04
2018-06-18T00:19:11.543Z,72.21
2018-06-18T00:21:40.348Z,70.76
2018-06-18T00:24:09.212Z,71.24
2018-06-18T00:26:38.027Z,71.62
2018-06-18T00:29:06.898Z,71.23
2018-06-18T00:31:35.750Z,70.62
2018-06-18T00:34:04.586Z,71.59
2018-06-18T00:36:33.361Z,71.16
2018-06-18T00:39:02.148Z,70.58
2018-06-18T00:41:30.946Z,70.66
2018-06-18T00:43:59.756Z,70.43
2018-06-18T00:46:28.530Z,71.47
2018-06-18T00:48:57.657Z,71.37
2018-06-18T00:51:26.430Z,70.67
2018-06-18T00:53:55.215Z,70.91
2018-06-18T00:56:24.378Z,71.61
2018-06-18T00:58:53.186Z,71.89
2018-06-18T01:01:22.021Z,73.29
2018-06-18T01:03:50.818Z,71.54
2018-06-18T01:06:19.645Z,71.48
2018-06-18T01:08:48.410Z,72.70
2018-06-18T01:11:17.222Z,72.03
2018-06-18T01:13:46.025Z,72.35
2018-06-18T01:16:14.816Z,71.89
2018-06-18T01:18:43.649Z,72.30
2018-06-18T01:21:12.444Z,71.80
2018-06-18T01:23:55.286Z,71.68
2018-06-18T01:26:24.317Z,73.26
2018-06-18T01:28:53.162Z,72.02
2018-06-18T01:31:21.949Z,72.06
2018-06-18T01:33:51.682Z,71.83
2018-06-18T01:36:20.489Z,72.01
2018-06-18T01:38:49.265Z,71.82
2018-06-18T01:41:18.051Z,72.90
2018-06-18T01:43:46.845Z,72.44
2018-06-18T01:46:15.653Z,71.93
2018-06-18T01:48:44.442Z,72.00
2018-06-18T01:51:13.238Z,72.45
2018-06-18T01:53:42.210Z,72.70
2018-06-18T01:56:11.021Z,72.73
2018-06-18T01:58:39.826Z,72.78
2018-06-18T02:01:08.639Z,72.59
2018-06-18T02:03:37.496Z,72.48
2018-06-18T02:06:06.474Z,71.88
2018-06-18T02:08:35.323Z,72.26
2018-06-18T02:11:04.166Z,72.45
2018-06-18T02:13:33.062Z,74.02
2018-06-18T02:16:01.865Z,73.33
2018-06-18T02:18:30.705Z,74.55
2018-06-18T02:20:59.510Z,74.60
2018-06-18T02:23:28.333Z,73.30
2018-06-18T02:25:57.138Z,74.02
2018-06-18T02:28:31.105Z,73.92
2018-06-18T02:31:04.994Z,73.11
2018-06-18T02:33:38.903Z,74.01
2018-06-18T02:36:12.910Z,74.72
2018-06-18T02:38:46.798Z,73.57
2018-06-18T02:41:15.615Z,73.04
2018-06-18T02:43:44.490Z,73.79
2018-06-18T02:46:13.278Z,73.54
2018-06-18T02:48:42.066Z,74.06
2018-06-18T02:51:10.857Z,74.45
2018-06-18T02:53:39.650Z,74.01
2018-06-18T02:56:08.595Z,74.03
2018-06-18T02:58:37.381Z,73.58
2018-06-18T03:01:06.222Z,73.37
2018-06-18T03:03:35.038Z,73.39
2018-06-18T03:06:03.869Z,73.49
2018-06-18T03:08:32.667Z,73.77
2018-06-18T03:11:01.459Z,75.15
2018-06-18T03:13:30.237Z,74.40
2018-06-18T03:15:59.101Z,74.36
2018-06-18T03:18:33.151Z,74.73
2018-06-18T03:21:07.218Z,74.69
2018-06-18T03:23:41.168Z,75.08
2018-06-18T03:26:15.194Z,75.00
2018-06-18T03:28:49.211Z,74.69
2018-06-18T03:31:17.993Z,74.69
2018-06-18T03:33:46.827Z,74.88
2018-06-18T03:36:15.602Z,75.05
2018-06-18T03:38:44.376Z,74.69
2018-06-18T03:41:13.169Z,75.21
2018-06-18T03:43:46.190Z,74.32
2018-06-18T03:46:14.987Z,75.03
2018-06-18T03:48:43.760Z,74.10
2018-06-18T03:51:12.713Z,74.33
2018-06-18T03:53:41.560Z,74.24
2018-06-18T03:56:10.350Z,73.80
2018-06-18T03:58:39.141Z,73.78
2018-06-18T04:02:23.243Z,73.62
2018-06-18T04:05:00.010Z,73.92
2018-06-18T04:07:40.304Z,73.65
2018-06-18T04:10:14.170Z,74.27
2018-06-18T04:12:43.046Z,73.70
2018-06-18T04:15:11.890Z,73.86
2018-06-18T04:17:40.683Z,73.22
2018-06-18T04:20:09.497Z,73.50
2018-06-18T04:22:38.280Z,73.51
2018-06-18T04:25:07.099Z,74.25
2018-06-18T04:27:35.885Z,73.23
2018-06-18T04:30:05.129Z,73.08
2018-06-18T04:32:33.950Z,73.91
2018-06-18T04:35:04.957Z,73.23
2018-06-18T04:37:33.795Z,72.87
2018-06-18T04:40:02.577Z,73.73
2018-06-18T04:42:36.565Z,73.67
2018-06-18T04:45:10.524Z,74.21
2018-06-18T04:47:44.469Z,73.53
2018-06-18T04:50:18.410Z,73.62
2018-06-18T04:52:47.271Z,73.17
2018-06-18T04:55:16.179Z,73.02
2018-06-18T04:57:45.070Z,72.73
2018-06-18T05:00:25.163Z,72.38
2018-06-18T05:02:54.023Z,73.12
2018-06-18T05:05:22.813Z,73.60
2018-06-18T05:07:59.545Z,72.77
2018-06-18T05:10:29.215Z,73.11
2018-06-18T05:12:58.160Z,72.32
2018-06-18T05:15:30.102Z,72.37
2018-06-18T05:17:58.905Z,72.22
2018-06-18T05:20:27.752Z,72.14
2018-06-18T05:22:56.527Z,71.79
2018-06-18T05:25:25.327Z,71.55
2018-06-18T05:27:54.138Z,71.78
2018-06-18T05:30:26.140Z,71.96
2018-06-18T05:32:54.939Z,71.63
2018-06-18T05:35:23.801Z,71.69
2018-06-18T05:37:57.790Z,71.81
2018-06-18T05:40:26.589Z,72.53
2018-06-18T05:42:55.398Z,71.73
2018-06-18T05:45:24.178Z,71.92
2018-06-18T05:47:52.987Z,71.41
2018-06-18T05:50:22.066Z,72.09
2018-06-18T05:52:50.827Z,71.58
2018-06-18T05:55:19.619Z,71.45
2018-06-18T05:57:48.389Z,71.26
2018-06-18T06:00:17.889Z,71.19
2018-06-18T06:02:46.732Z,70.53
2018-06-18T06:05:15.587Z,70.61
2018-06-18T06:07:44.410Z,70.43
2018-06-18T06:10:13.211Z,70.38
2018-06-18T06:12:41.994Z,69.91
2018-06-18T06:15:10.873Z,70.14
2018-06-18T06:17:39.658Z,69.78
2018-06-18T06:20:09.048Z,69.58
2018-06-18T06:22:37.849Z,69.52
2018-06-18T06:25:06.703Z,69.51
2018-06-18T06:27:35.721Z,69.53
2018-06-18T06:30:05.075Z,69.28
2018-06-18T06:32:33.931Z,68.84
2018-06-18T06:35:07.809Z,68.56
2018-06-18T06:37:36.638Z,68.30
2018-06-18T06:40:05.468Z,68.25
2018-06-18T06:42:34.228Z,67.67
2018-06-18T06:45:02.986Z,67.47
2018-06-18T06:47:31.773Z,67.17
2018-06-18T06:50:00.562Z,67.36
2018-06-18T06:52:29.342Z,66.68
2018-06-18T06:54:58.124Z,67.06
2018-06-18T06:57:27.020Z,66.87
2018-06-18T06:59:55.777Z,66.50
2018-06-18T07:02:24.608Z,66.34
2018-06-18T07:04:53.377Z,65.58
2018-06-18T07:07:22.274Z,65.55
2018-06-18T07:09:51.045Z,66.10
2018-06-18T07:12:19.801Z,65.59
2018-06-18T07:14:48.549Z,65.88
2018-06-18T07:17:17.320Z,65.45
2018-06-18T07:19:46.090Z,65.08
2018-06-18T07:22:15.090Z,64.73
2018-06-18T07:24:43.858Z,64.67
2018-06-18T07:27:12.645Z,64.62
2018-06-18T07:29:41.450Z,64.69
2018-06-18T07:32:10.251Z,64.79
2018-06-18T07:34:39.042Z,64.60
2018-06-18T07:37:07.998Z,64.56
2018-06-18T07:39:36.753Z,64.63
2018-06-18T07:42:05.566Z,64.34
2018-06-18T07:44:34.469Z,63.99
2018-06-18T07:47:03.229Z,63.83
2018-06-18T07:49:32.017Z,63.98
2018-06-18T07:52:00.767Z,63.93
2018-06-18T07:54:29.586Z,63.39
2018-06-18T07:56:58.351Z,63.21
2018-06-18T07:59:27.200Z,63.71
2018-06-18T08:01:55.994Z,63.59
2018-06-18T08:04:25.156Z,63.51
2018-06-18T08:06:53.956Z,63.45
2018-06-18T08:09:22.726Z,63.56
2018-06-18T08:11:51.756Z,63.07
2018-06-18T08:14:20.506Z,62.72
2018-06-18T08:16:49.285Z,62.18
2018-06-18T08:19:18.108Z,61.91
2018-06-18T08:21:46.861Z,61.01
2018-06-18T08:24:15.654Z,60.10
2018-06-18T08:26:44.454Z,61.02
2018-06-18T08:29:13.207Z,60.85
2018-06-18T08:31:41.973Z,57.89
2018-06-18T08:34:10.782Z,59.69
2018-06-18T08:36:39.559Z,59.27
2018-06-18T08:39:10.011Z,59.70
2018-06-18T08:41:38.844Z,59.84
2018-06-18T08:44:07.656Z,60.28
2018-06-18T08:46:36.457Z,60.10
2018-06-18T08:49:06.593Z,59.85
2018-06-18T08:51:40.473Z,59.72
2018-06-18T08:54:14.439Z,59.41
2018-06-18T08:56:48.252Z,58.05
2018-06-18T08:59:22.127Z,59.56
2018-06-18T09:01:51.237Z,59.27
2018-06-18T09:04:24.998Z,58.75
2018-06-18T09:06:57.861Z,58.91
2018-06-18T09:09:26.643Z,58.55
2018-06-18T09:11:55.425Z,58.93
2018-06-18T09:14:24.207Z,58.45
2018-06-18T09:16:53.058Z,58.65
2018-06-18T09:19:21.861Z,57.67
2018-06-18T09:21:50.658Z,57.40
2018-06-18T09:24:23.554Z,56.38
2018-06-18T09:26:56.476Z,56.84
2018-06-18T09:29:25.267Z,56.32
2018-06-18T09:31:54.151Z,56.40
2018-06-18T09:34:22.897Z,56.52
2018-06-18T09:36:51.833Z,55.30
2018-06-18T09:39:20.585Z,55.80
2018-06-18T09:41:49.366Z,54.75
2018-06-18T09:44:18.200Z,55.34
2018-06-18T09:46:46.965Z,55.44
2018-06-18T09:49:20.960Z,54.61
2018-06-18T09:51:54.903Z,54.25
2018-06-18T09:54:28.744Z,54.00
2018-06-18T09:58:05.484Z,53.76
2018-06-18T10:00:50.622Z,54.59
2018-06-18T10:03:19.402Z,54.11
2018-06-18T10:05:48.238Z,54.03
2018-06-18T10:08:17.238Z,53.96
2018-06-18T10:10:46.020Z,51.27
2018-06-18T10:13:14.786Z,53.26
2018-06-18T10:15:43.577Z,53.17
2018-06-18T10:18:12.373Z,53.53
2018-06-18T10:20:41.154Z,53.10
2018-06-18T10:23:09.950Z,53.15
2018-06-18T10:25:38.762Z,53.48
2018-06-18T10:28:07.579Z,51.19
2018-06-18T10:30:36.552Z,52.53
2018-06-18T10:33:10.368Z,52.54
2018-06-18T10:35:44.297Z,52.66
2018-06-18T10:38:18.256Z,53.14
2018-06-18T10:40:52.269Z,53.25
2018-06-18T10:43:22.163Z,52.89
2018-06-18T10:45:51.514Z,53.36
2018-06-18T10:48:20.654Z,52.96
2018-06-18T10:50:49.606Z,53.17
2018-06-18T10:53:18.390Z,53.03
2018-06-18T10:55:47.189Z,52.46
2018-06-18T10:58:16.026Z,51.90
2018-06-18T11:00:45.693Z,51.49
2018-06-18T11:03:14.698Z,51.39
2018-06-18T11:05:48.625Z,51.73
2018-06-18T11:08:17.409Z,52.06
2018-06-18T11:10:46.208Z,52.22
2018-06-18T11:13:14.991Z,52.25
2018-06-18T11:15:43.910Z,51.29
2018-06-18T11:18:17.793Z,51.46
2018-06-18T11:20:51.793Z,51.72
2018-06-18T11:23:25.562Z,51.91
2018-06-18T11:25:59.499Z,51.45
2018-06-18T11:28:28.334Z,50.79
2018-06-18T11:30:57.147Z,51.41
2018-06-18T11:33:26.023Z,51.28
2018-06-18T11:35:54.849Z,51.11
2018-06-18T11:38:23.656Z,50.51
2018-06-18T11:40:52.505Z,50.96
2018-06-18T11:43:21.344Z,50.31
2018-06-18T11:45:50.116Z,49.05
2018-06-18T11:48:20.436Z,48.38
2018-06-18T11:50:49.585Z,49.61
2018-06-18T11:53:19.200Z,49.11
2018-06-18T11:55:48.025Z,49.96
2018-06-18T11:58:23.868Z,49.99
2018-06-18T12:00:57.882Z,50.59
2018-06-18T12:03:31.745Z,50.18
2018-06-18T12:06:05.735Z,50.03
2018-06-18T12:08:39.670Z,50.01
2018-06-18T12:11:08.462Z,48.97
2018-06-18T12:13:37.240Z,49.02
2018-06-18T12:16:06.158Z,49.14
2018-06-18T12:18:34.953Z,49.82
2018-06-18T12:21:03.750Z,50.08
2018-06-18T12:23:32.526Z,49.84
2018-06-18T12:26:01.498Z,50.21
2018-06-18T12:28:30.259Z,50.48
2018-06-18T12:30:59.053Z,50.81
2018-06-18T12:33:27.885Z,50.94
2018-06-18T12:35:56.670Z,50.93
2018-06-18T12:38:25.449Z,50.94
2018-06-18T12:40:54.481Z,50.74
2018-06-18T12:43:25.012Z,51.08
2018-06-18T12:45:59.984Z,50.85
2018-06-18T12:48:34.071Z,51.01
2018-06-18T12:51:08.205Z,51.44
2018-06-18T12:53:42.169Z,51.43
2018-06-18T12:56:16.145Z,51.56
2018-06-18T12:58:44.936Z,51.74
2018-06-18T13:01:15.420Z,52.12
2018-06-18T13:03:44.254Z,52.13
2018-06-18T13:06:13.086Z,52.14
2018-06-18T13:08:41.858Z,52.09
2018-06-18T13:11:10.758Z,52.02
2018-06-18T13:13:39.622Z,52.20
2018-06-18T13:16:08.478Z,52.42
2018-06-18T13:18:37.280Z,52.43
2018-06-18T13:21:06.203Z,52.31
2018-06-18T13:23:35.084Z,52.17
2018-06-18T13:26:04.057Z,52.03
2018-06-18T13:28:32.977Z,52.27
2018-06-18T13:31:01.903Z,52.26
2018-06-18T13:33:30.819Z,52.23
2018-06-18T13:35:59.678Z,52.11
2018-06-18T13:38:33.715Z,52.44
2018-06-18T13:41:07.789Z,52.19
2018-06-18T13:43:41.620Z,52.23
2018-06-18T13:46:15.546Z,52.07
2018-06-18T13:48:46.916Z,51.92
2018-06-18T13:51:15.790Z,51.50
2018-06-18T13:53:44.689Z,51.25
2018-06-18T13:56:13.547Z,50.18
2018-06-18T13:58:42.597Z,49.36
2018-06-18T14:01:12.697Z,49.15
2018-06-18T14:03:41.645Z,48.45
2018-06-18T14:06:10.514Z,48.83
2018-06-18T14:08:39.358Z,49.01
2018-06-18T14:11:08.214Z,48.11
2018-06-18T14:13:37.010Z,48.54
2018-06-18T14:16:05.924Z,48.01
2018-06-18T14:18:34.834Z,47.95
2018-06-18T14:21:03.761Z,47.80
2018-06-18T14:23:32.927Z,47.58
2018-06-18T14:26:01.767Z,47.78
2018-06-18T14:28:30.602Z,47.26
2018-06-18T14:31:04.784Z,47.20
2018-06-18T14:33:38.950Z,46.95
2018-06-18T14:37:11.417Z,46.93
2018-06-18T14:39:45.364Z,47.16
2018-06-18T14:42:14.324Z,47.09
2018-06-18T14:44:43.146Z,47.14
2018-06-18T14:47:11.993Z,46.89
2018-06-18T14:49:41.118Z,46.98
2018-06-18T14:52:09.975Z,46.87
2018-06-18T14:54:38.838Z,46.84
2018-06-18T14:57:08.027Z,46.98
2018-06-18T14:59:41.864Z,46.96
2018-06-18T15:02:10.785Z,46.87
2018-06-18T15:04:39.619Z,46.67
2018-06-18T15:07:08.498Z,46.49
2018-06-18T15:09:37.526Z,46.38
2018-06-18T15:12:06.436Z,46.44
2018-06-18T15:14:35.285Z,46.37
2018-06-18T15:17:04.176Z,45.96
2018-06-18T15:19:33.173Z,45.41
2018-06-18T15:22:01.978Z,45.61
2018-06-18T15:24:47.503Z,45.85
2018-06-18T15:27:16.640Z,46.35
2018-06-18T15:29:45.640Z,46.24
2018-06-18T15:32:14.550Z,46.07
2018-06-18T15:34:43.456Z,45.73
2018-06-18T15:37:12.281Z,45.36
2018-06-18T15:39:41.375Z,44.83
2018-06-18T15:42:10.226Z,45.13
2018-06-18T15:44:39.035Z,44.32
2018-06-18T15:47:07.850Z,44.52
2018-06-18T15:49:36.697Z,45.22
2018-06-18T15:52:05.482Z,44.72
2018-06-18T15:54:34.469Z,43.69
2018-06-18T15:57:03.733Z,43.91
2018-06-18T15:59:32.680Z,44.16
2018-06-18T16:02:02.046Z,44.37
2018-06-18T16:04:31.074Z,44.56
2018-06-18T16:06:59.850Z,44.41
2018-06-18T16:09:28.649Z,44.49
2018-06-18T16:11:57.411Z,43.96
2018-06-18T16:14:26.169Z,43.95
2018-06-18T16:16:54.967Z,44.74
2018-06-18T16:19:23.789Z,44.30
2018-06-18T16:21:52.583Z,44.70
2018-06-18T16:24:21.420Z,45.13
2018-06-18T16:26:50.203Z,45.02
2018-06-18T16:29:18.990Z,44.95
2018-06-18T16:31:47.834Z,44.95
2018-06-18T16:34:17.496Z,45.41
2018-06-18T16:36:46.336Z,45.16
2018-06-18T16:39:15.169Z,45.16
2018-06-18T16:41:44.008Z,45.12
2018-06-18T16:44:12.798Z,45.09
2018-06-18T16:46:41.711Z,44.92
2018-06-18T16:49:10.561Z,45.11
2018-06-18T16:51:39.423Z,44.87
2018-06-18T16:54:08.259Z,44.80
2018-06-18T16:56:37.103Z,44.59
2018-06-18T16:59:06.003Z,44.72
2018-06-18T17:01:34.898Z,44.48
2018-06-18T17:04:03.854Z,44.96
2018-06-18T17:06:32.653Z,44.96
2018-06-18T17:09:01.559Z,44.61
2018-06-18T17:11:30.324Z,44.77
2018-06-18T17:13:59.129Z,44.87
2018-06-18T17:16:27.951Z,45.13
2018-06-18T17:18:56.765Z,45.24
2018-06-18T17:21:25.567Z,45.23
2018-06-18T17:23:54.395Z,45.61
2018-06-18T17:26:23.295Z,45.36
2018-06-18T17:28:52.099Z,45.07
2018-06-18T17:31:20.933Z,45.32
2018-06-18T17:33:49.702Z,45.45
2018-06-18T17:36:18.462Z,45.61
2018-06-18T17:38:47.233Z,45.33
2018-06-18T17:41:16.035Z,45.21
2018-06-18T17:43:44.814Z,45.59
2018-06-18T17:46:13.577Z,45.44
2018-06-18T17:48:42.351Z,45.29
2018-06-18T17:51:11.137Z,45.25
2018-06-18T17:53:39.966Z,45.08
2018-06-18T17:56:08.759Z,44.67
2018-06-18T17:58:37.513Z,45.04
2018-06-18T18:01:06.317Z,45.03
2018-06-18T18:03:35.097Z,45.19
2018-06-18T18:06:03.849Z,45.14
2018-06-18T18:08:32.755Z,45.39
2018-06-18T18:11:01.502Z,45.59
2018-06-18T18:13:30.329Z,45.62
2018-06-18T18:15:59.157Z,45.68
2018-06-18T18:18:27.979Z,45.74
2018-06-18T18:20:56.753Z,45.71
2018-06-18T18:23:25.526Z,45.68
2018-06-18T18:25:54.449Z,46.03
2018-06-18T18:28:23.214Z,45.89
2018-06-18T18:30:52.169Z,45.74
2018-06-18T18:33:20.995Z,46.15
2018-06-18T18:35:49.823Z,45.96
2018-06-18T18:38:18.672Z,46.34
2018-06-18T18:40:47.466Z,46.49
2018-06-18T18:43:16.234Z,46.46
2018-06-18T18:45:45.096Z,46.38
2018-06-18T18:48:13.940Z,46.59
2018-06-18T18:50:42.732Z,46.49
2018-06-18T18:53:11.544Z,46.62
2018-06-18T18:55:58.853Z,46.83
2018-06-18T18:59:40.888Z,47.05
2018-06-18T19:02:09.758Z,46.95
2018-06-18T19:04:46.505Z,47.25
2018-06-18T19:07:15.806Z,47.23
2018-06-18T19:09:50.749Z,47.09
2018-06-18T19:12:19.770Z,47.52
2018-06-18T19:14:48.557Z,47.66
2018-06-18T19:17:17.586Z,47.82
2018-06-18T19:19:57.790Z,47.92
2018-06-18T19:22:26.578Z,48.28
2018-06-18T19:24:55.378Z,48.46
2018-06-18T19:27:24.298Z,48.48
2018-06-18T19:29:53.119Z,48.86
2018-06-18T19:32:21.934Z,48.51
2018-06-18T19:34:50.718Z,48.37
2018-06-18T19:37:19.708Z,49.12
2018-06-18T19:39:48.738Z,49.26
2018-06-18T19:42:17.552Z,49.32
2018-06-18T19:44:47.111Z,49.75
2018-06-18T19:47:26.806Z,50.13
2018-06-18T19:49:55.777Z,49.96
2018-06-18T19:52:24.586Z,49.74
2018-06-18T19:54:56.806Z,49.68
2018-06-18T19:57:25.568Z,49.91
2018-06-18T19:59:54.345Z,50.33
2018-06-18T20:02:23.125Z,50.48
2018-06-18T20:04:51.908Z,50.58
2018-06-18T20:07:22.072Z,50.61
2018-06-18T20:09:50.838Z,50.64
2018-06-18T20:12:19.601Z,50.59
2018-06-18T20:14:48.425Z,50.86
2018-06-18T20:17:17.229Z,50.88
2018-06-18T20:19:46.008Z,51.40
2018-06-18T20:22:14.794Z,51.90
2018-06-18T20:24:44.683Z,51.77
2018-06-18T20:27:13.469Z,51.40
2018-06-18T20:29:42.227Z,51.74
2018-06-18T20:32:11.012Z,52.09
2018-06-18T20:34:40.425Z,52.31
2018-06-18T20:37:09.185Z,51.99
2018-06-18T20:39:37.952Z,52.35
2018-06-18T20:42:06.812Z,51.81
2018-06-18T20:44:35.653Z,52.21
2018-06-18T20:47:04.446Z,52.33
2018-06-18T20:49:33.237Z,52.13
2018-06-18T20:52:02.028Z,52.49
2018-06-18T20:54:30.825Z,52.78
2018-06-18T20:56:59.705Z,52.77
2018-06-18T20:59:28.454Z,52.74
2018-06-18T21:01:57.341Z,52.80
2018-06-18T21:04:26.216Z,53.26
2018-06-18T21:06:54.975Z,53.10
2018-06-18T21:09:23.835Z,52.71
2018-06-18T21:11:52.642Z,52.32
2018-06-18T21:14:21.427Z,52.69
2018-06-18T21:16:50.301Z,52.72
2018-06-18T21:19:19.062Z,53.08
2018-06-18T21:21:47.843Z,53.60
2018-06-18T21:24:16.658Z,53.36
2018-06-18T21:26:45.446Z,53.71
2018-06-18T21:29:14.250Z,53.89
2018-06-18T21:31:43.066Z,53.36
2018-06-18T21:34:11.850Z,53.88
2018-06-18T21:36:40.624Z,53.76
2018-06-18T21:39:10.810Z,54.34
2018-06-18T21:41:39.887Z,53.75
2018-06-18T21:44:13.786Z,54.25
2018-06-18T21:46:42.566Z,54.31
2018-06-18T21:49:11.373Z,54.12
2018-06-18T21:51:40.403Z,54.18
2018-06-18T21:54:09.257Z,54.73
2018-06-18T21:56:38.033Z,54.26
2018-06-18T21:59:06.865Z,54.33
2018-06-18T22:01:43.177Z,54.86
2018-06-18T22:04:12.255Z,54.53
2018-06-18T22:06:41.065Z,54.95
2018-06-18T22:09:13.830Z,54.94
2018-06-18T22:11:43.750Z,54.71
2018-06-18T22:14:12.636Z,54.88
2018-06-18T22:16:41.481Z,55.17
2018-06-18T22:19:10.294Z,55.06
2018-06-18T22:21:39.491Z,55.47
2018-06-18T22:24:14.722Z,55.43
2018-06-18T22:26:43.635Z,55.58
2018-06-18T22:29:13.061Z,55.18
2018-06-18T22:31:41.870Z,55.24
2018-06-18T22:34:10.772Z,55.55
2018-06-18T22:36:39.526Z,55.48
2018-06-18T22:39:10.397Z,55.69
2018-06-18T22:41:39.240Z,56.26
2018-06-18T22:44:08.862Z,56.30
2018-06-18T22:46:38.001Z,56.10
2018-06-18T22:49:07.308Z,56.65
2018-06-18T22:51:36.069Z,56.34
2018-06-18T22:54:04.922Z,56.38
2018-06-18T22:56:33.699Z,56.70
2018-06-18T22:59:02.492Z,56.67
2018-06-18T23:01:31.298Z,57.17
2018-06-18T23:04:00.143Z,56.91
2018-06-18T23:06:28.919Z,57.23
2018-06-18T23:08:58.194Z,56.69
2018-06-18T23:11:27.030Z,56.39
2018-06-18T23:13:55.830Z,56.86
2018-06-18T23:16:24.697Z,57.66
2018-06-18T23:18:53.613Z,56.83
2018-06-18T23:21:22.401Z,56.98
2018-06-18T23:23:51.228Z,57.16
2018-06-18T23:26:20.000Z,56.98
2018-06-18T23:28:52.060Z,56.99
2018-06-18T23:31:20.821Z,58.74
2018-06-18T23:33:49.614Z,58.40
2018-06-18T23:36:18.453Z,58.73
2018-06-18T23:38:47.251Z,58.99
2018-06-18T23:41:16.194Z,58.39
2018-06-18T23:43:45.011Z,58.46
2018-06-18T23:46:13.795Z,58.10
2018-06-18T23:48:42.630Z,59.40
2018-06-18T23:51:11.429Z,58.00
2018-06-18T23:53:40.222Z,59.03
2018-06-18T23:56:09.023Z,58.95
2018-06-18T23:58:37.807Z,59.00
